createdAt,value
2019-06-04T00:03:09.941Z,26.30
2019-06-04T00:07:17.550Z,27.73
2019-06-04T00:11:25.127Z,26.23
2019-06-04T00:15:32.828Z,24.93
2019-06-04T00:19:40.314Z,24.97
2019-06-04T00:23:48.052Z,23.83
2019-06-04T00:27:56.808Z,25.37
2019-06-04T00:32:04.433Z,28.47
2019-06-04T00:36:12.111Z,24.17
2019-06-04T00:40:22.619Z,23.60
2019-06-04T00:44:30.972Z,23.67
2019-06-04T00:48:38.867Z,25.27
2019-06-04T00:52:46.772Z,26.07
2019-06-04T00:56:54.310Z,25.43
2019-06-04T01:01:03.965Z,24.93
2019-06-04T01:05:11.769Z,23.97
2019-06-04T01:09:19.176Z,22.47
2019-06-04T01:13:27.211Z,22.60
2019-06-04T01:17:34.803Z,22.57
2019-06-04T01:21:42.828Z,22.77
2019-06-04T01:25:51.283Z,23.03
2019-06-04T01:29:59.787Z,23.30
2019-06-04T01:34:08.453Z,24.07
2019-06-04T01:38:17.434Z,26.47
2019-06-04T01:42:24.946Z,24.63
2019-06-04T01:46:33.297Z,25.20
2019-06-04T01:50:41.337Z,28.90
2019-06-04T01:54:48.927Z,30.57
2019-06-04T01:58:56.817Z,29.13
2019-06-04T02:03:05.264Z,28.97
2019-06-04T02:07:14.160Z,28.10
2019-06-04T02:11:22.101Z,26.93
2019-06-04T02:15:29.707Z,28.47
2019-06-04T02:19:37.718Z,26.27
2019-06-04T02:23:45.110Z,27.87
2019-06-04T02:27:53.192Z,26.97
2019-06-04T02:32:01.069Z,27.67
2019-06-04T02:36:08.964Z,28.47
2019-06-04T02:40:18.267Z,32.03
2019-06-04T02:44:26.189Z,32.70
2019-06-04T02:48:35.745Z,26.17
2019-06-04T02:52:47.210Z,19.37
2019-06-04T02:56:57.306Z,15.60
2019-06-04T03:01:05.247Z,13.87
2019-06-04T03:05:14.752Z,12.07
2019-06-04T03:09:22.234Z,11.00
2019-06-04T03:13:30.303Z,13.37
2019-06-04T03:17:38.304Z,15.30
2019-06-04T03:21:45.824Z,16.37
2019-06-04T03:25:53.583Z,16.43
2019-06-04T03:30:02.076Z,12.70
2019-06-04T03:34:10.187Z,12.77
2019-06-04T03:38:19.100Z,10.30
2019-06-04T03:42:27.956Z,8.47
2019-06-04T03:46:35.643Z,7.03
2019-06-04T03:50:43.425Z,7.10
2019-06-04T03:54:51.052Z,5.33
2019-06-04T03:58:58.840Z,5.17
2019-06-04T04:03:07.266Z,5.63
2019-06-04T04:07:14.766Z,6.83
2019-06-04T04:11:22.842Z,6.40
2019-06-04T04:15:30.326Z,6.53
2019-06-04T04:19:38.239Z,7.03
2019-06-04T04:23:47.868Z,8.53
2019-06-04T04:27:55.344Z,11.07
2019-06-04T04:32:03.486Z,11.70
2019-06-04T04:36:11.463Z,10.60
2019-06-04T04:40:20.080Z,16.90
2019-06-04T04:44:28.525Z,9.90
2019-06-04T04:48:36.191Z,12.20
2019-06-04T04:52:44.179Z,11.67
2019-06-04T04:56:51.815Z,8.37
2019-06-04T05:00:59.573Z,7.57
2019-06-04T05:05:07.700Z,9.73
2019-06-04T05:09:15.285Z,8.97
2019-06-04T05:13:26.687Z,11.73
2019-06-04T05:17:36.044Z,7.97
2019-06-04T05:21:45.959Z,9.77
2019-06-04T05:25:53.864Z,9.03
2019-06-04T05:30:01.555Z,7.37
2019-06-04T05:34:10.144Z,9.27
2019-06-04T05:38:17.982Z,7.47
2019-06-04T05:42:26.392Z,7.40
2019-06-04T05:46:34.470Z,10.00
2019-06-04T05:50:42.806Z,8.27
2019-06-04T05:54:50.623Z,8.90
2019-06-04T05:58:58.610Z,9.30
2019-06-04T06:03:06.118Z,10.10
2019-06-04T06:07:14.115Z,8.83
2019-06-04T06:11:23.723Z,4.83
2019-06-04T06:15:32.438Z,5.40
2019-06-04T06:19:40.075Z,6.37
2019-06-04T06:23:47.647Z,5.37
2019-06-04T06:27:55.668Z,5.80
2019-06-04T06:32:03.656Z,4.53
2019-06-04T06:36:11.282Z,6.00
2019-06-04T06:40:20.477Z,6.37
2019-06-04T06:44:29.516Z,5.20
2019-06-04T06:48:37.162Z,9.57
2019-06-04T06:52:45.125Z,7.53
2019-06-04T06:56:53.131Z,5.28
2019-06-04T07:01:09.012Z,6.03
2019-06-04T07:05:17.624Z,7.22
2019-06-04T07:09:27.005Z,8.50
2019-06-04T07:13:35.468Z,11.08
2019-06-04T07:17:44.299Z,7.05
2019-06-04T07:21:52.354Z,10.85
2019-06-04T07:26:00.034Z,6.12
2019-06-04T07:30:08.361Z,9.35
2019-06-04T07:34:16.436Z,10.15
2019-06-04T07:38:24.055Z,8.48
2019-06-04T07:42:33.178Z,5.60
2019-06-04T07:46:41.615Z,9.88
2019-06-04T07:50:50.615Z,4.72
2019-06-04T07:54:58.676Z,3.05
2019-06-04T07:59:06.562Z,2.95
2019-06-04T08:03:14.753Z,5.47
2019-06-04T08:07:22.466Z,5.17
2019-06-04T08:11:30.219Z,3.30
2019-06-04T08:15:39.656Z,2.85
2019-06-04T08:19:47.333Z,6.10
2019-06-04T08:23:55.158Z,4.35
2019-06-04T08:28:02.773Z,6.40
2019-06-04T08:32:11.096Z,11.05
2019-06-04T08:36:19.072Z,10.78
2019-06-04T08:40:26.653Z,11.18
2019-06-04T08:44:35.633Z,4.67
2019-06-04T08:48:44.469Z,11.85
2019-06-04T08:52:53.177Z,6.90
2019-06-04T08:57:01.735Z,7.53
2019-06-04T09:01:10.436Z,4.80
2019-06-04T09:05:18.380Z,7.33
2019-06-04T09:09:27.796Z,8.25
2019-06-04T09:13:35.805Z,9.90
2019-06-04T09:17:48.566Z,9.83
2019-06-04T09:21:53.320Z,8.88
2019-06-04T09:26:01.484Z,5.35
2019-06-04T09:30:09.787Z,7.58
2019-06-04T09:34:17.965Z,7.30
2019-06-04T09:38:26.116Z,8.90
2019-06-04T09:42:33.752Z,6.90
2019-06-04T09:46:43.312Z,8.13
2019-06-04T09:50:58.901Z,4.72
2019-06-04T09:55:01.934Z,7.53
2019-06-04T09:59:10.213Z,7.65
2019-06-04T10:03:17.879Z,8.38
2019-06-04T10:07:25.927Z,5.42
2019-06-04T10:11:33.528Z,8.58
2019-06-04T10:15:42.846Z,8.05
2019-06-04T10:19:51.848Z,5.75
2019-06-04T10:23:59.602Z,6.65
2019-06-04T10:28:07.918Z,7.55
2019-06-04T10:32:15.809Z,9.83
2019-06-04T10:36:23.827Z,11.57
2019-06-04T10:40:35.762Z,6.37
2019-06-04T10:44:40.929Z,9.58
2019-06-04T10:48:50.039Z,6.03
2019-06-04T10:52:57.745Z,9.00
2019-06-04T10:57:05.782Z,8.60
2019-06-04T11:01:12.974Z,9.95
2019-06-04T11:05:20.539Z,12.63
2019-06-04T11:09:28.225Z,9.48
2019-06-04T11:13:35.705Z,7.90
2019-06-04T11:17:43.670Z,7.47
2019-06-04T11:21:52.848Z,6.60
2019-06-04T11:26:00.532Z,10.08
2019-06-04T11:30:08.796Z,10.18
2019-06-04T11:34:24.117Z,12.40
2019-06-04T11:38:26.238Z,8.28
2019-06-04T11:42:34.289Z,12.18
2019-06-04T11:46:42.302Z,6.40
2019-06-04T11:50:51.569Z,9.18
2019-06-04T11:54:59.913Z,10.03
2019-06-04T11:59:08.778Z,11.53
2019-06-04T12:03:16.488Z,11.70
2019-06-04T12:07:24.542Z,12.67
2019-06-04T12:11:32.601Z,10.90
2019-06-04T12:15:40.279Z,10.98
2019-06-04T12:19:48.359Z,10.60
2019-06-04T12:23:55.882Z,9.00
2019-06-04T12:28:05.214Z,10.43
2019-06-04T12:32:13.350Z,8.97
2019-06-04T12:36:20.958Z,11.90
2019-06-04T12:40:29.152Z,12.30
2019-06-04T12:44:37.010Z,12.73
2019-06-04T12:48:44.772Z,12.58
2019-06-04T12:52:53.059Z,9.45
2019-06-04T12:57:02.015Z,8.00
2019-06-04T13:01:12.049Z,7.83
2019-06-04T13:05:19.916Z,9.08
2019-06-04T13:09:27.452Z,8.90
2019-06-04T13:13:35.852Z,12.20
2019-06-04T13:17:43.771Z,8.78
2019-06-04T13:21:51.934Z,12.28
2019-06-04T13:26:01.043Z,8.97
2019-06-04T13:30:10.377Z,9.03
2019-06-04T13:34:18.453Z,8.63
2019-06-04T13:38:26.479Z,7.78
2019-06-04T13:42:34.404Z,9.87
2019-06-04T13:46:42.038Z,6.50
2019-06-04T13:50:49.997Z,8.15
2019-06-04T13:54:57.556Z,10.47
2019-06-04T13:59:06.376Z,11.80
2019-06-04T14:03:14.212Z,8.30
2019-06-04T14:07:22.341Z,10.28
2019-06-04T14:11:29.722Z,12.47
2019-06-04T14:15:37.830Z,10.60
2019-06-04T14:19:49.683Z,9.45
2019-06-04T14:23:56.895Z,7.70
2019-06-04T14:28:08.287Z,9.07
2019-06-04T14:32:15.805Z,10.20
2019-06-04T14:36:25.228Z,9.23
2019-06-04T14:40:33.776Z,9.60
2019-06-04T14:44:41.500Z,10.47
2019-06-04T14:48:49.505Z,8.37
2019-06-04T14:52:57.010Z,14.10
2019-06-04T14:57:05.399Z,13.93
2019-06-04T15:01:15.203Z,8.87
2019-06-04T15:05:22.867Z,12.10
2019-06-04T15:09:30.585Z,9.43
2019-06-04T15:13:38.049Z,11.77
2019-06-04T15:17:46.081Z,10.17
2019-06-04T15:21:53.702Z,13.63
2019-06-04T15:26:09.844Z,9.87
2019-06-04T15:30:12.013Z,8.37
2019-06-04T15:34:20.740Z,10.70
2019-06-04T15:38:29.099Z,11.90
2019-06-04T15:42:37.216Z,11.43
2019-06-04T15:46:46.237Z,10.83
2019-06-04T15:50:54.596Z,14.30
2019-06-04T15:55:03.165Z,13.47
2019-06-04T15:59:11.138Z,17.20
2019-06-04T16:03:19.318Z,16.30
2019-06-04T16:07:27.438Z,13.33
2019-06-04T16:11:35.222Z,12.40
2019-06-04T16:15:43.235Z,15.80
2019-06-04T16:19:50.817Z,14.90
2019-06-04T16:23:59.272Z,15.07
2019-06-04T16:28:14.546Z,14.17
2019-06-04T16:32:17.541Z,18.30
2019-06-04T16:36:26.044Z,15.70
2019-06-04T16:40:35.454Z,17.27
2019-06-04T16:44:43.050Z,16.73
2019-06-04T16:48:51.079Z,20.07
2019-06-04T16:52:59.751Z,17.43
2019-06-04T16:57:08.208Z,15.37
2019-06-04T17:01:16.332Z,17.37
2019-06-04T17:05:26.044Z,18.97
2019-06-04T17:09:33.873Z,22.20
2019-06-04T17:13:41.762Z,23.50
2019-06-04T17:17:49.770Z,17.77
2019-06-04T17:21:57.280Z,27.60
2019-06-04T17:26:07.057Z,28.80
2019-06-04T17:30:14.243Z,29.60
2019-06-04T17:34:22.507Z,26.33
2019-06-04T17:38:31.223Z,29.30
2019-06-04T17:42:38.821Z,26.83
2019-06-04T17:46:50.470Z,27.63
2019-06-04T17:50:56.193Z,29.07
2019-06-04T17:55:04.299Z,28.73
2019-06-04T17:59:12.051Z,31.17
2019-06-04T18:03:19.521Z,31.73
2019-06-04T18:07:28.752Z,30.83
2019-06-04T18:11:36.598Z,33.27
2019-06-04T18:15:44.415Z,36.10
2019-06-04T18:19:52.430Z,39.33
2019-06-04T18:23:59.847Z,33.17
2019-06-04T18:28:07.607Z,28.77
2019-06-04T18:32:15.164Z,30.87
2019-06-04T18:36:22.911Z,34.60
2019-06-04T18:40:30.591Z,36.57
2019-06-04T18:44:38.664Z,34.07
2019-06-04T18:48:46.328Z,34.00
2019-06-04T18:52:54.315Z,24.57
2019-06-04T18:57:01.910Z,26.17
2019-06-04T19:01:11.933Z,26.90
2019-06-04T19:05:19.943Z,28.90
2019-06-04T19:09:27.619Z,22.67
2019-06-04T19:13:35.523Z,26.63
2019-06-04T19:17:43.523Z,26.43
2019-06-04T19:21:52.195Z,29.87
2019-06-04T19:26:00.273Z,29.33
2019-06-04T19:30:08.838Z,27.40
2019-06-04T19:34:16.822Z,31.27
2019-06-04T19:38:24.798Z,30.73
2019-06-04T19:42:32.806Z,31.83
2019-06-04T19:46:40.459Z,29.90
2019-06-04T19:50:48.155Z,38.83
2019-06-04T19:54:57.185Z,33.60
2019-06-04T19:59:04.787Z,33.37
2019-06-04T20:03:13.167Z,36.53
2019-06-04T20:07:20.865Z,36.67
2019-06-04T20:11:29.741Z,29.50
2019-06-04T20:15:39.067Z,30.60
2019-06-04T20:19:47.761Z,30.10
2019-06-04T20:23:55.393Z,29.20
2019-06-04T20:28:03.136Z,31.23
2019-06-04T20:32:10.790Z,25.67
2019-06-04T20:36:18.760Z,28.70
2019-06-04T20:40:31.413Z,27.30
2019-06-04T20:44:36.360Z,24.50
2019-06-04T20:49:00.674Z,25.93
2019-06-04T20:52:54.521Z,24.83
2019-06-04T20:57:23.063Z,25.27
2019-06-04T21:01:13.428Z,26.63
2019-06-04T21:05:21.643Z,26.97
2019-06-04T21:09:29.365Z,29.93
2019-06-04T21:13:36.846Z,25.70
2019-06-04T21:17:45.958Z,25.80
2019-06-04T21:21:54.645Z,27.27
2019-06-04T21:26:02.302Z,23.43
2019-06-04T21:30:11.044Z,26.23
2019-06-04T21:34:19.054Z,22.50
2019-06-04T21:38:26.635Z,24.97
2019-06-04T21:42:34.655Z,26.80
2019-06-04T21:46:42.166Z,32.57
2019-06-04T21:50:50.266Z,26.60
2019-06-04T21:54:58.324Z,25.27
2019-06-04T21:59:05.927Z,26.27
2019-06-04T22:03:14.352Z,30.17
2019-06-04T22:07:21.933Z,27.23
2019-06-04T22:11:29.940Z,22.37
2019-06-04T22:15:37.981Z,23.47
2019-06-04T22:19:45.468Z,26.07
2019-06-04T22:23:53.461Z,23.67
2019-06-04T22:28:01.354Z,22.90
2019-06-04T22:32:09.041Z,22.77
2019-06-04T22:36:17.419Z,17.17
2019-06-04T22:40:25.331Z,16.17
2019-06-04T22:44:33.368Z,16.97
2019-06-04T22:48:40.770Z,21.23
2019-06-04T22:52:51.309Z,20.97
2019-06-04T22:56:59.105Z,24.33
2019-06-04T23:01:06.887Z,20.83
2019-06-04T23:05:15.036Z,20.10
2019-06-04T23:09:22.879Z,28.07
2019-06-04T23:13:30.479Z,19.93
2019-06-04T23:17:39.511Z,23.50
2019-06-04T23:21:47.083Z,23.73
2019-06-04T23:25:55.736Z,26.43
2019-06-04T23:30:09.730Z,24.97
2019-06-04T23:34:13.140Z,23.97
2019-06-04T23:38:21.149Z,15.60
2019-06-04T23:42:28.612Z,19.17
2019-06-04T23:46:52.313Z,19.93
2019-06-04T23:50:46.365Z,21.33
2019-06-04T23:54:53.862Z,19.80
2019-06-04T23:59:02.974Z,16.27
